Towanda, Kansas
Current Conditions -  °F | °C
As of 12:35 AM on Sunday 26 Oct 2014 (Local Time) from KEQA Reporting Station
Clear Clear  
Wind Chill: 66°   Ceiling: Unl
Heat Index: 66°   Visibility: 10mi
Dew Point: 61°   Wind: 5mph
Humidity: 83%   Direction: 170°S
Pressure: 29.95"   Gusts: NA
Location:  37.8°N, 97°W
Report Text: KEQA 260535Z AUTO 17004KT 10SM CLR 19/16 A2995 RMK AO2
Loading
Personal Weather Stations






























Interactive Weather Map
Tropical Storm Tracking
New forecast layout! Learn more

10-Day Weather Forecast

Advertisements
Track Severe Weather on mobile